Time;durP1;ratioP1;P1;durP2;ratioP2;P2;SDS_P1;SDS_P2;PMS_P1;PMS_P2;Temp;Humidity;BMP_temperature;BMP_pressure;BME280_temperature;BME280_humidity;BME280_pressure;Samples;Min_cycle;Max_cycle;Signal;HPM_P1;HPM_P2
2022/05/30 00:00:00;;;;;;;6.70;3.63;;;9.10;99.80;;;;;;5054657;28;20276;-67
2022/05/30 00:02:26;;;;;;;11.23;4.00;;;9.10;99.90;;;;;;5056116;28;20181;-67
2022/05/30 00:04:52;;;;;;;7.50;3.60;;;9.00;99.80;;;;;;5055713;28;20708;-67
2022/05/30 00:07:17;;;;;;;8.27;3.60;;;9.00;99.90;;;;;;5055852;28;20181;-67
2022/05/30 00:09:48;;;;;;;8.23;3.57;;;9.00;99.90;;;;;;5055670;28;20626;-67
2022/05/30 00:12:13;;;;;;;7.20;3.80;;;8.90;99.90;;;;;;5055607;28;20175;-67
2022/05/30 00:14:39;;;;;;;5.57;3.80;;;8.90;99.90;;;;;;5055457;28;20181;-67
2022/05/30 00:17:05;;;;;;;4.73;3.60;;;8.90;99.90;;;;;;5055725;28;20180;-67
2022/05/30 00:19:30;;;;;;;4.53;3.97;;;8.90;99.90;;;;;;5054563;28;20577;-67
2022/05/30 00:21:56;;;;;;;8.60;4.00;;;8.90;99.90;;;;;;5055560;28;20215;-67
2022/05/30 00:24:23;;;;;;;5.93;3.80;;;8.90;99.90;;;;;;5055464;28;20209;-67
2022/05/30 00:26:48;;;;;;;4.60;4.20;;;8.90;99.90;;;;;;5054987;28;20169;-67
2022/05/30 00:29:14;;;;;;;6.93;4.13;;;8.90;99.90;;;;;;5055285;28;20701;-68
2022/05/30 00:31:39;;;;;;;6.13;4.50;;;8.90;99.90;;;;;;5055532;28;20169;-66
2022/05/30 00:34:05;;;;;;;9.90;4.93;;;8.90;99.90;;;;;;5055206;28;20180;-68
2022/05/30 00:36:31;;;;;;;8.73;4.40;;;8.90;99.80;;;;;;5055249;28;20169;-67
2022/05/30 00:38:56;;;;;;;7.00;4.20;;;8.90;99.90;;;;;;5055200;28;20652;-67
2022/05/30 00:41:23;;;;;;;5.80;4.17;;;8.90;99.90;;;;;;5054685;28;20169;-67
2022/05/30 00:43:48;;;;;;;7.87;4.53;;;8.90;99.90;;;;;;5055282;28;20241;-67
2022/05/30 00:46:18;;;;;;;7.97;4.30;;;9.00;99.80;;;;;;5055363;28;20165;-68
2022/05/30 00:48:47;;;;;;;5.80;4.43;;;8.90;98.30;;;;;;5055255;28;20177;-67
2022/05/30 00:51:36;;;;;;;8.80;4.53;;;8.90;97.70;;;;;;5055039;28;20173;-68
2022/05/30 00:54:04;;;;;;;4.63;4.23;;;8.80;99.50;;;;;;5054997;28;20173;-68
2022/05/30 00:56:34;;;;;;;6.53;4.43;;;8.80;99.90;;;;;;5054595;28;20170;-68
2022/05/30 00:59:00;;;;;;;7.13;4.57;;;8.80;99.90;;;;;;5053815;28;20209;-67
2022/05/30 01:01:25;;;;;;;12.23;4.83;;;8.80;99.90;;;;;;5054939;28;20173;-68
2022/05/30 01:06:42;;;;;;;12.17;4.93;;;8.70;99.90;;;;;;5054912;28;20272;-67
2022/05/30 01:09:13;;;;;;;10.43;5.33;;;8.70;99.90;;;;;;5054600;28;20276;-67
2022/05/30 01:11:55;;;;;;;5.93;4.90;;;8.60;99.90;;;;;;5054495;28;20185;-68
2022/05/30 01:14:23;;;;;;;5.57;4.77;;;8.60;99.90;;;;;;5054786;28;20652;-67
2022/05/30 01:16:49;;;;;;;9.80;5.07;;;8.60;99.90;;;;;;5054350;28;20256;-67
2022/05/30 01:19:36;;;;;;;10.00;5.17;;;8.50;99.90;;;;;;5054370;28;20205;-67
2022/05/30 01:22:16;;;;;;;5.67;5.03;;;8.60;99.90;;;;;;5054533;28;20750;-67
2022/05/30 01:25:00;;;;;;;10.40;5.27;;;8.70;99.90;;;;;;5054345;28;20212;-67
2022/05/30 01:27:56;;;;;;;8.40;5.53;;;8.70;99.90;;;;;;5054122;28;20515;-68
2022/05/30 01:30:22;;;;;;;8.03;5.13;;;8.70;99.90;;;;;;5054553;28;20268;-68
2022/05/30 01:32:48;;;;;;;7.90;5.37;;;8.60;99.90;;;;;;5054325;28;20197;-68
2022/05/30 01:35:23;;;;;;;11.40;5.43;;;8.60;99.90;;;;;;5054336;28;20633;-68
2022/05/30 01:37:48;;;;;;;8.97;5.47;;;8.50;99.90;;;;;;5054346;28;20169;-68
2022/05/30 01:40:14;;;;;;;9.23;5.43;;;8.50;99.90;;;;;;5053898;28;20269;-67
2022/05/30 01:42:40;;;;;;;10.00;5.27;;;8.40;99.90;;;;;;5054011;28;20169;-67
2022/05/30 01:45:06;;;;;;;7.63;5.07;;;8.40;99.90;;;;;;5054008;28;20256;-67
2022/05/30 01:47:32;;;;;;;12.40;5.80;;;8.40;99.90;;;;;;5054078;28;20169;-67
2022/05/30 01:49:57;;;;;;;11.07;5.47;;;8.30;99.90;;;;;;5054053;28;20223;-67
2022/05/30 01:52:23;;;;;;;13.27;5.50;;;8.40;99.90;;;;;;5054004;28;20170;-67
2022/05/30 01:54:49;;;;;;;10.70;5.60;;;8.30;99.90;;;;;;5053572;28;20178;-67
2022/05/30 01:57:14;;;;;;;13.10;6.40;;;8.30;99.90;;;;;;5053749;28;20529;-67
2022/05/30 01:59:40;;;;;;;11.37;6.20;;;8.30;99.90;;;;;;5053784;28;20277;-67
2022/05/30 02:02:09;;;;;;;13.17;6.47;;;8.30;99.90;;;;;;5053842;28;20682;-68
2022/05/30 02:04:34;;;;;;;12.30;5.87;;;8.30;99.90;;;;;;5053396;28;20237;-67
2022/05/30 02:07:00;;;;;;;12.47;6.50;;;8.20;99.90;;;;;;5053589;28;20180;-67
2022/05/30 02:09:25;;;;;;;9.40;6.60;;;8.30;99.90;;;;;;5053268;28;20252;-67
2022/05/30 02:11:51;;;;;;;12.17;6.37;;;8.20;99.90;;;;;;5052098;28;20187;-67
2022/05/30 02:14:17;;;;;;;11.40;6.57;;;8.20;99.90;;;;;;5053570;28;20168;-67
2022/05/30 02:17:01;;;;;;;11.77;6.73;;;8.10;99.90;;;;;;5053490;28;20223;-68
2022/05/30 02:19:28;;;;;;;8.80;6.47;;;8.10;99.90;;;;;;5053466;28;20184;-67
2022/05/30 02:21:53;;;;;;;11.23;6.73;;;8.00;99.90;;;;;;5053392;28;20184;-67
2022/05/30 02:24:19;;;;;;;8.10;6.33;;;8.10;99.90;;;;;;5053044;28;20205;-67
2022/05/30 02:26:44;;;;;;;10.37;6.43;;;8.00;99.90;;;;;;5053244;28;20586;-67
2022/05/30 02:29:10;;;;;;;9.53;6.60;;;8.00;99.90;;;;;;5053535;28;20177;-67
2022/05/30 02:31:36;;;;;;;9.70;6.60;;;8.10;99.90;;;;;;5051920;28;20550;-67
2022/05/30 02:36:47;;;;;;;10.83;7.60;;;8.10;99.90;;;;;;5053294;28;20269;-67
2022/05/30 02:39:23;;;;;;;17.17;8.10;;;8.20;99.90;;;;;;5053265;28;20252;-67
2022/05/30 02:41:50;;;;;;;10.53;8.23;;;8.10;99.90;;;;;;5053043;28;20588;-67
2022/05/30 02:44:19;;;;;;;14.50;7.93;;;8.10;99.90;;;;;;5052951;28;20244;-67
2022/05/30 02:46:48;;;;;;;11.47;7.23;;;8.10;99.90;;;;;;5053157;28;20252;-67
2022/05/30 02:49:15;;;;;;;12.17;7.63;;;8.20;99.90;;;;;;5053100;28;20581;-67
2022/05/30 02:51:41;;;;;;;17.10;8.27;;;8.20;99.90;;;;;;5051901;28;20173;-67
2022/05/30 02:54:07;;;;;;;12.97;7.97;;;8.10;99.90;;;;;;5052981;28;20182;-68
2022/05/30 02:56:33;;;;;;;10.07;7.70;;;8.10;99.90;;;;;;5052869;28;20185;-68
2022/05/30 02:59:00;;;;;;;15.63;8.17;;;8.10;99.90;;;;;;5052670;28;20783;-67
2022/05/30 03:01:26;;;;;;;12.10;7.47;;;8.00;99.90;;;;;;5053099;28;20185;-66
2022/05/30 03:03:52;;;;;;;10.40;8.17;;;8.00;99.90;;;;;;5052899;28;20743;-67
2022/05/30 03:06:18;;;;;;;12.43;7.90;;;8.00;99.90;;;;;;5052380;28;20252;-67
2022/05/30 03:08:44;;;;;;;15.30;8.23;;;8.10;99.90;;;;;;5052835;28;20213;-67
2022/05/30 03:11:10;;;;;;;12.17;7.97;;;8.10;99.90;;;;;;5052857;28;20208;-67
2022/05/30 03:13:36;;;;;;;15.50;9.00;;;8.10;99.90;;;;;;5052750;28;20173;-67
2022/05/30 03:16:03;;;;;;;18.17;9.03;;;8.10;99.90;;;;;;5052772;28;20173;-67
2022/05/30 03:18:29;;;;;;;17.83;9.20;;;8.10;99.90;;;;;;5051845;28;20174;-67
2022/05/30 03:20:55;;;;;;;15.00;8.43;;;8.10;99.90;;;;;;5052184;28;20178;-67
2022/05/30 03:23:20;;;;;;;16.67;8.77;;;8.20;99.90;;;;;;5055281;28;20208;-67
2022/05/30 03:25:46;;;;;;;16.70;9.00;;;8.10;99.90;;;;;;5056606;28;20655;-68
2022/05/30 03:28:11;;;;;;;20.67;9.10;;;8.20;99.90;;;;;;5056592;28;20189;-66
2022/05/30 03:30:37;;;;;;;15.60;9.30;;;8.20;99.90;;;;;;5055211;28;20711;-67
2022/05/30 03:33:04;;;;;;;14.43;8.97;;;8.20;99.90;;;;;;5056550;28;20169;-68
2022/05/30 03:35:30;;;;;;;14.13;9.13;;;8.10;99.90;;;;;;5055807;28;20266;-67
2022/05/30 03:37:56;;;;;;;15.63;9.07;;;8.20;99.90;;;;;;5056320;28;20616;-67
2022/05/30 03:40:22;;;;;;;16.20;9.73;;;8.10;99.90;;;;;;5055974;28;20175;-66
2022/05/30 03:42:47;;;;;;;15.57;9.43;;;8.10;99.90;;;;;;5056055;28;20255;-67
2022/05/30 03:45:13;;;;;;;15.03;8.57;;;8.10;99.90;;;;;;5055659;28;20181;-67
2022/05/30 03:47:41;;;;;;;16.67;9.30;;;8.10;99.90;;;;;;5056174;28;20262;-67
2022/05/30 03:50:10;;;;;;;11.27;8.30;;;8.20;99.90;;;;;;5055754;28;20173;-67
2022/05/30 03:52:35;;;;;;;18.33;9.43;;;8.20;99.90;;;;;;5055903;28;20176;-66
2022/05/30 03:55:04;;;;;;;14.63;8.73;;;8.30;99.90;;;;;;5055164;28;20181;-68
2022/05/30 03:57:29;;;;;;;18.70;8.50;;;8.30;99.90;;;;;;5055731;28;20180;-67
2022/05/30 03:59:55;;;;;;;18.20;9.33;;;8.40;99.90;;;;;;5055644;28;20197;-67
2022/05/30 04:02:20;;;;;;;15.40;8.70;;;8.50;99.90;;;;;;5055708;28;20619;-67
2022/05/30 04:04:46;;;;;;;16.87;8.87;;;8.70;99.90;;;;;;5055097;28;20225;-67
2022/05/30 04:07:11;;;;;;;13.67;8.17;;;9.10;99.90;;;;;;5055407;28;20197;-66
2022/05/30 04:09:37;;;;;;;11.40;7.37;;;9.70;99.90;;;;;;5055018;28;20172;-67
2022/05/30 04:12:03;;;;;;;13.87;6.90;;;10.50;99.90;;;;;;5055394;28;20295;-66
2022/05/30 04:14:31;;;;;;;12.73;6.70;;;11.30;99.90;;;;;;5055576;28;20633;-66
2022/05/30 04:16:57;;;;;;;9.07;6.10;;;12.00;99.90;;;;;;5055554;28;20632;-66
2022/05/30 04:19:22;;;;;;;15.57;7.47;;;12.90;99.90;;;;;;5055666;28;20177;-67
2022/05/30 04:21:48;;;;;;;9.37;5.73;;;13.20;82.80;;;;;;5055450;28;20192;-67
2022/05/30 04:24:14;;;;;;;7.57;4.80;;;14.10;32.90;;;;;;5055252;28;20228;-66
2022/05/30 04:26:39;;;;;;;12.13;5.60;;;14.80;1.00;;;;;;5053556;28;20177;-66
2022/05/30 04:29:07;;;;;;;10.13;5.10;;;15.40;1.00;;;;;;5055145;28;20177;-66
2022/05/30 04:31:33;;;;;;;9.00;5.20;;;16.30;1.00;;;;;;5054957;28;20205;-66
2022/05/30 04:33:59;;;;;;;9.30;4.70;;;17.00;99.90;;;;;;5054471;28;20208;-66
2022/05/30 04:36:24;;;;;;;10.43;4.93;;;17.50;1.00;;;;;;5054689;28;20256;-66
2022/05/30 04:38:50;;;;;;;6.87;4.27;;;17.50;1.00;;;;;;5054025;28;20226;-66
2022/05/30 04:41:16;;;;;;;5.83;3.70;;;17.80;1.00;;;;;;5053475;28;20182;-67
2022/05/30 04:43:41;;;;;;;9.63;3.80;;;18.40;1.00;;;;;;5054539;28;20571;-66
2022/05/30 04:46:11;;;;;;;6.00;3.47;;;18.60;99.90;;;;;;5054411;28;20303;-67
2022/05/30 04:48:37;;;;;;;6.00;3.23;;;18.20;99.90;;;;;;5054144;28;20173;-67
2022/05/30 04:51:03;;;;;;;7.50;3.73;;;17.00;63.40;;;;;;5054683;28;20188;-67
2022/05/30 04:53:29;;;;;;;7.80;3.80;;;16.40;1.00;;;;;;5053714;28;20230;-67
2022/05/30 04:55:54;;;;;;;11.03;4.37;;;16.00;99.90;;;;;;5053630;28;20173;-66
2022/05/30 04:58:20;;;;;;;6.73;4.10;;;15.70;1.00;;;;;;5054717;28;20184;-66
2022/05/30 05:00:46;;;;;;;7.67;4.73;;;15.40;99.90;;;;;;5053964;28;20208;-66
2022/05/30 05:03:12;;;;;;;7.43;4.70;;;15.00;1.00;;;;;;5053693;28;20734;-67
2022/05/30 05:05:37;;;;;;;5.60;4.73;;;14.70;1.00;;;;;;5053745;28;20225;-67
2022/05/30 05:08:28;;;;;;;12.03;5.80;;;14.50;99.90;;;;;;5054288;28;20633;-67
2022/05/30 05:11:04;;;;;;;8.47;5.63;;;14.20;99.90;;;;;;5053949;28;20164;-66
2022/05/30 05:13:30;;;;;;;11.70;6.00;;;14.10;1.00;;;;;;5053512;28;20744;-66
2022/05/30 05:15:57;;;;;;;12.10;6.40;;;14.00;1.00;;;;;;5053138;28;20201;-66
2022/05/30 05:18:22;;;;;;;8.87;5.23;;;14.10;1.00;;;;;;5053369;28;20203;-67
2022/05/30 05:20:48;;;;;;;14.80;5.60;;;14.10;1.00;;;;;;5053264;28;20600;-67
2022/05/30 05:23:14;;;;;;;9.67;5.60;;;14.20;1.00;;;;;;5053461;28;20706;-67
2022/05/30 05:25:40;;;;;;;10.33;5.43;;;14.10;1.00;;;;;;5052052;28;20169;-68
2022/05/30 05:28:06;;;;;;;10.60;5.30;;;14.10;1.00;;;;;;5053703;28;20260;-67
2022/05/30 05:30:32;;;;;;;11.67;5.57;;;13.60;1.00;;;;;;5053325;28;20181;-67
2022/05/30 05:32:58;;;;;;;13.70;5.70;;;13.60;1.00;;;;;;5052726;28;20180;-68
2022/05/30 05:35:24;;;;;;;11.53;4.90;;;14.00;1.00;;;;;;5052414;28;20243;-68
2022/05/30 05:37:49;;;;;;;10.40;4.97;;;15.10;1.00;;;;;;5053188;28;20169;-67
2022/05/30 05:40:15;;;;;;;10.13;5.03;;;15.20;1.00;;;;;;5052459;28;20170;-68
2022/05/30 05:42:40;;;;;;;10.97;5.10;;;15.20;1.00;;;;;;5053099;28;20184;-68
2022/05/30 05:45:07;;;;;;;15.20;6.20;;;14.70;1.00;;;;;;5052592;28;20575;-67
2022/05/30 05:47:34;;;;;;;15.93;5.17;;;15.00;99.90;;;;;;5052274;28;20199;-69
2022/05/30 05:50:00;;;;;;;10.87;5.40;;;14.90;99.90;;;;;;5052513;28;20258;-67
2022/05/30 05:52:28;;;;;;;12.90;5.70;;;14.80;99.90;;;;;;5053044;28;20315;-67
2022/05/30 05:54:57;;;;;;;12.17;5.37;;;14.80;99.90;;;;;;5051167;28;20227;-69
2022/05/30 05:57:25;;;;;;;8.70;4.70;;;14.60;1.00;;;;;;5052253;28;20185;-68
2022/05/30 05:59:51;;;;;;;15.77;5.00;;;14.00;1.00;;;;;;5052058;28;20297;-67
2022/05/30 06:02:18;;;;;;;17.40;4.63;;;14.10;1.00;;;;;;5051687;28;20169;-67
2022/05/30 06:04:44;;;;;;;12.53;4.60;;;14.10;1.00;;;;;;5052698;28;20275;-67
2022/05/30 06:07:10;;;;;;;10.93;4.80;;;14.00;1.00;;;;;;5052277;28;20231;-68
2022/05/30 06:09:37;;;;;;;15.07;4.77;;;13.70;1.00;;;;;;5052247;28;20620;-67
2022/05/30 06:12:03;;;;;;;13.53;4.40;;;13.30;1.00;;;;;;5051783;28;20231;-68
2022/05/30 06:14:29;;;;;;;14.80;4.63;;;13.30;1.00;;;;;;5052569;28;20173;-67
2022/05/30 06:16:54;;;;;;;9.87;5.30;;;13.30;1.00;;;;;;5051380;28;20169;-68
2022/05/30 06:19:20;;;;;;;17.23;6.30;;;13.70;1.00;;;;;;5050764;28;20462;-67
2022/05/30 06:21:46;;;;;;;10.17;6.07;;;14.30;1.00;;;;;;5052390;28;20260;-68
2022/05/30 06:24:13;;;;;;;17.20;7.00;;;14.80;1.00;;;;;;5051851;28;20316;-67
2022/05/30 06:26:39;;;;;;;16.40;6.37;;;15.10;99.90;;;;;;5051720;28;20181;-67
2022/05/30 06:29:05;;;;;;;15.43;7.50;;;15.30;99.90;;;;;;5050075;28;20643;-67
2022/05/30 06:31:31;;;;;;;16.40;5.37;;;15.60;1.00;;;;;;5061608;28;20192;-68
2022/05/30 06:33:58;;;;;;;12.50;5.60;;;15.40;1.00;;;;;;5055018;28;20180;-68
2022/05/30 06:36:25;;;;;;;10.97;5.10;;;15.60;99.90;;;;;;5070693;28;20635;-68
2022/05/30 06:38:52;;;;;;;15.57;4.87;;;15.70;1.00;;;;;;5064179;28;20180;-67
2022/05/30 06:41:23;;;;;;;8.37;3.80;;;15.70;99.90;;;;;;5051881;28;20174;-68
2022/05/30 06:43:52;;;;;;;8.77;3.07;;;15.50;1.00;;;;;;5054011;28;20205;-68
2022/05/30 06:46:17;;;;;;;8.50;3.23;;;14.90;44.90;;;;;;5059092;28;20172;-69
2022/05/30 06:48:43;;;;;;;5.17;2.63;;;14.90;1.00;;;;;;5059267;28;20254;-67
2022/05/30 06:51:15;;;;;;;8.17;3.50;;;14.60;1.00;;;;;;5050521;28;20165;-68
2022/05/30 06:53:41;;;;;;;11.70;3.40;;;14.90;99.90;;;;;;5051312;28;20173;-68
2022/05/30 06:56:24;;;;;;;9.50;2.93;;;15.50;99.90;;;;;;5051291;28;20176;-68
2022/05/30 06:58:50;;;;;;;8.80;2.70;;;16.10;1.00;;;;;;5055216;28;20726;-69
2022/05/30 07:01:18;;;;;;;10.20;3.23;;;15.60;1.00;;;;;;5055612;28;20165;-68
2022/05/30 07:03:46;;;;;;;8.67;3.03;;;15.10;15.70;;;;;;5055400;28;20200;-68
2022/05/30 07:06:19;;;;;;;11.23;2.80;;;15.20;1.00;;;;;;5054188;28;20231;-67
2022/05/30 07:08:46;;;;;;;9.87;2.53;;;15.60;99.90;;;;;;5054896;28;20177;-68
2022/05/30 07:11:17;;;;;;;5.07;2.30;;;16.00;99.90;;;;;;5054663;28;20169;-66
2022/05/30 07:13:44;;;;;;;10.73;2.40;;;16.90;99.90;;;;;;5060883;28;20281;-68
2022/05/30 07:16:10;;;;;;;7.40;2.70;;;18.10;99.90;;;;;;5064783;28;20174;-69
2022/05/30 07:18:37;;;;;;;8.48;3.15;;;20.70;1.00;;;;;;5071429;28;20196;-69
2022/05/30 07:21:05;;;;;;;5.00;2.55;;;23.10;99.90;;;;;;5059673;28;20173;-70
2022/05/30 07:23:33;;;;;;;8.00;2.60;;;25.10;99.90;;;;;;5060077;28;20220;-70
2022/05/30 07:26:00;;;;;;;5.65;2.38;;;26.70;99.90;;;;;;5070327;28;20271;-71
2022/05/30 07:28:29;;;;;;;6.95;2.85;;;27.50;99.90;;;;;;5074221;28;20200;-74
2022/05/30 07:30:55;;;;;;;6.32;2.33;;;28.30;99.90;;;;;;5074607;28;20168;-73
2022/05/30 07:33:21;;;;;;;5.20;2.40;;;29.20;99.90;;;;;;5074928;28;20168;-71
2022/05/30 07:35:47;;;;;;;5.00;2.33;;;30.40;99.90;;;;;;5058199;28;20173;-70
2022/05/30 07:38:13;;;;;;;5.10;1.70;;;30.40;93.10;;;;;;5071294;28;20173;-71
2022/05/30 07:40:38;;;;;;;3.90;2.33;;;30.10;88.10;;;;;;5074203;28;20636;-70
2022/05/30 07:43:04;;;;;;;5.32;2.10;;;29.40;81.90;;;;;;5090404;28;20168;-70
2022/05/30 07:45:31;;;;;;;3.50;1.92;;;29.80;75.70;;;;;;5077888;28;20182;-70
2022/05/30 07:47:56;;;;;;;4.55;2.08;;;29.80;68.20;;;;;;5086403;28;20220;-72
2022/05/30 07:50:22;;;;;;;2.85;1.60;;;28.40;65.90;;;;;;5084748;28;20177;-74
2022/05/30 07:52:47;;;;;;;5.55;2.38;;;28.80;62.90;;;;;;5074563;28;20692;-74
2022/05/30 07:55:13;;;;;;;3.58;2.20;;;29.30;56.90;;;;;;5061706;28;20207;-73
2022/05/30 07:57:51;;;;;;;3.60;1.95;;;30.30;54.80;;;;;;5089369;28;20263;-71
2022/05/30 08:00:19;;;;;;;5.32;2.45;;;30.20;53.00;;;;;;5084256;28;20282;-72
2022/05/30 08:02:44;;;;;;;3.67;1.80;;;30.60;50.90;;;;;;5079776;28;20183;-72
2022/05/30 08:05:13;;;;;;;3.97;1.60;;;30.40;43.30;;;;;;5074455;28;20228;-69
2022/05/30 08:07:39;;;;;;;3.85;1.60;;;29.00;46.50;;;;;;5079225;28;20667;-69
2022/05/30 08:10:09;;;;;;;3.05;1.58;;;24.60;50.40;;;;;;5066640;28;20185;-68
2022/05/30 08:12:35;;;;;;;3.70;1.85;;;25.60;58.00;;;;;;5055469;28;20193;-69
2022/05/30 08:15:01;;;;;;;6.38;2.00;;;26.00;51.70;;;;;;5070592;28;20616;-69
2022/05/30 08:17:27;;;;;;;4.43;1.70;;;24.50;54.60;;;;;;5090842;28;20249;-70
2022/05/30 08:19:52;;;;;;;5.53;1.60;;;24.30;58.00;;;;;;5072788;28;20184;-68
2022/05/30 08:22:18;;;;;;;5.63;1.65;;;25.00;59.20;;;;;;5070341;28;20176;-71
2022/05/30 08:24:52;;;;;;;4.25;2.70;;;24.70;60.00;;;;;;5086876;28;20200;-71
2022/05/30 08:27:19;;;;;;;2.53;1.60;;;26.50;59.10;;;;;;5077046;28;20255;-70
2022/05/30 08:29:45;;;;;;;2.05;1.48;;;26.20;46.10;;;;;;5073874;28;20182;-72
2022/05/30 08:32:12;;;;;;;3.38;1.40;;;27.40;51.50;;;;;;5082474;28;20533;-70
2022/05/30 08:34:42;;;;;;;3.40;1.40;;;26.60;48.80;;;;;;5081153;28;20233;-68
2022/05/30 08:37:09;;;;;;;3.85;1.73;;;24.90;52.20;;;;;;5068885;28;20547;-70
2022/05/30 08:42:26;;;;;;;2.67;1.40;;;24.70;56.20;;;;;;5071482;28;20260;-69
2022/05/30 08:44:53;;;;;;;4.15;1.88;;;25.50;53.80;;;;;;5073260;28;20299;-69
2022/05/30 08:47:44;;;;;;;5.38;1.17;;;25.10;53.10;;;;;;5073884;28;20218;-68
2022/05/30 08:50:30;;;;;;;2.70;1.23;;;22.80;55.90;;;;;;5073013;28;20165;-68
2022/05/30 08:53:14;;;;;;;3.78;1.38;;;21.90;63.80;;;;;;5074500;28;20168;-67
2022/05/30 08:55:58;;;;;;;3.40;1.40;;;20.10;71.80;;;;;;5074002;28;20206;-67
2022/05/30 08:58:36;;;;;;;2.50;1.70;;;19.70;85.40;;;;;;5073471;28;20180;-68
2022/05/30 09:01:07;;;;;;;4.85;2.28;;;19.60;92.70;;;;;;5072616;28;20225;-67
2022/05/30 09:03:39;;;;;;;2.42;1.40;;;19.80;95.80;;;;;;5073991;28;20212;-67
2022/05/30 09:06:23;;;;;;;2.28;1.48;;;19.90;98.70;;;;;;5073462;28;20236;-68
2022/05/30 09:08:54;;;;;;;4.90;1.40;;;19.90;99.20;;;;;;5073540;28;20173;-68
2022/05/30 09:11:27;;;;;;;3.13;1.40;;;19.80;99.90;;;;;;5073367;28;20169;-68
2022/05/30 09:13:55;;;;;;;3.60;1.30;;;20.70;99.90;;;;;;5073294;28;20208;-68
2022/05/30 09:16:29;;;;;;;3.03;1.25;;;22.30;97.30;;;;;;5074652;28;20302;-68
2022/05/30 09:18:57;;;;;;;3.40;1.50;;;22.90;90.60;;;;;;5073716;28;20635;-69
2022/05/30 09:21:26;;;;;;;2.83;1.33;;;24.10;83.50;;;;;;5073031;28;20172;-68
2022/05/30 09:23:52;;;;;;;2.45;1.20;;;25.10;70.00;;;;;;5073619;28;20204;-69
2022/05/30 09:26:24;;;;;;;2.88;1.25;;;24.70;59.80;;;;;;5073484;28;20175;-68
2022/05/30 09:28:51;;;;;;;2.42;1.20;;;23.50;59.90;;;;;;5073738;28;20179;-67
2022/05/30 09:31:22;;;;;;;1.58;1.48;;;21.50;65.50;;;;;;5072895;28;20218;-68
2022/05/30 09:33:51;;;;;;;6.20;1.88;;;19.70;78.10;;;;;;5073482;28;20168;-67
2022/05/30 09:36:43;;;;;;;5.10;2.00;;;19.10;94.10;;;;;;5073395;28;20161;-67
2022/05/30 09:39:16;;;;;;;8.63;2.85;;;19.00;99.90;;;;;;5070790;28;20322;-68
2022/05/30 09:41:42;;;;;;;8.55;3.78;;;18.10;99.90;;;;;;5071973;28;20176;-66
2022/05/30 09:44:24;;;;;;;4.75;2.05;;;17.60;99.90;;;;;;5073124;28;20208;-67
2022/05/30 09:47:03;;;;;;;6.90;2.17;;;17.70;99.90;;;;;;5073056;28;20184;-67
2022/05/30 09:49:39;;;;;;;7.57;3.83;;;17.50;99.90;;;;;;5072557;28;20180;-67
2022/05/30 09:52:33;;;;;;;9.33;2.23;;;17.70;99.90;;;;;;5072862;28;20195;-67
2022/05/30 09:54:59;;;;;;;6.10;2.17;;;17.50;99.90;;;;;;5072822;28;20636;-67
2022/05/30 09:57:38;;;;;;;5.60;2.20;;;17.30;99.90;;;;;;5072547;28;20217;-68
2022/05/30 10:00:12;;;;;;;3.03;2.20;;;17.40;99.90;;;;;;5072531;28;20199;-67
2022/05/30 10:02:41;;;;;;;6.73;2.40;;;17.30;99.90;;;;;;5072707;28;20164;-66
2022/05/30 10:05:26;;;;;;;4.53;2.27;;;17.20;99.90;;;;;;5072110;28;20289;-68
2022/05/30 10:07:55;;;;;;;4.87;2.37;;;17.40;99.90;;;;;;5072557;28;20255;-67
2022/05/30 10:10:29;;;;;;;3.83;2.13;;;17.50;99.90;;;;;;5072773;28;20252;-67
2022/05/30 10:13:10;;;;;;;3.03;2.17;;;17.20;99.90;;;;;;5072589;28;20169;-67
2022/05/30 10:15:42;;;;;;;4.83;1.90;;;17.00;1.00;;;;;;5072946;28;20176;-67
2022/05/30 10:18:13;;;;;;;4.47;1.90;;;16.70;99.90;;;;;;5072165;28;20528;-67
2022/05/30 10:20:54;;;;;;;5.17;2.37;;;16.20;1.00;;;;;;5072450;28;20172;-68
2022/05/30 10:30:06;;;;;;;3.40;2.30;;;16.70;1.00;;;;;;5030143;28;20264;-67
2022/05/30 10:33:05;;;;;;;8.37;3.30;;;16.60;1.00;;;;;;5030068;28;20573;-67
2022/05/30 10:35:35;;;;;;;5.20;2.80;;;16.80;1.00;;;;;;5030044;28;20166;-68
2022/05/30 10:38:18;;;;;;;5.30;2.43;;;16.60;1.00;;;;;;5030196;28;20204;-68
2022/05/30 10:40:52;;;;;;;3.47;1.83;;;16.60;1.00;;;;;;5029477;28;20177;-66
2022/05/30 10:43:26;;;;;;;6.93;2.13;;;16.60;1.00;;;;;;5030550;28;20301;-66
2022/05/30 10:46:02;;;;;;;5.97;2.43;;;16.70;1.00;;;;;;5030255;28;20536;-66
2022/05/30 10:48:37;;;;;;;3.00;2.37;;;16.40;1.00;;;;;;5030199;28;20224;-66
2022/05/30 10:51:12;;;;;;;4.63;2.17;;;16.50;1.00;;;;;;5029679;28;20276;-66
2022/05/30 10:54:03;;;;;;;4.83;2.10;;;16.70;1.00;;;;;;5029641;28;20255;-67
2022/05/30 10:56:36;;;;;;;4.17;2.20;;;16.80;1.00;;;;;;4971369;28;20196;-67
2022/05/30 10:59:29;;;;;;;4.13;2.40;;;16.80;99.90;;;;;;4970967;28;20196;-67
2022/05/30 11:02:08;;;;;;;7.60;2.40;;;16.40;1.00;;;;;;4978594;28;20184;-68
2022/05/30 11:04:58;;;;;;;6.33;2.47;;;16.40;1.00;;;;;;5029613;28;20205;-68
2022/05/30 11:07:48;;;;;;;7.07;2.70;;;16.40;1.00;;;;;;5030128;28;20186;-67
2022/05/30 11:10:45;;;;;;;4.87;2.40;;;16.50;1.00;;;;;;5029317;28;20252;-67
2022/05/30 11:13:10;;;;;;;4.67;2.23;;;16.20;99.90;;;;;;5013224;28;20201;-67
2022/05/30 11:16:05;;;;;;;3.40;2.20;;;16.20;1.00;;;;;;5028845;28;20224;-67
2022/05/30 11:21:32;;;;;;;5.93;5.13;;;15.90;1.00;;;;;;4890395;23;20237;-70
2022/05/30 11:24:03;;;;;;;4.70;2.57;;;15.80;1.00;;;;;;4970143;28;20241;-70
2022/05/30 11:26:49;;;;;;;7.33;2.93;;;15.60;1.00;;;;;;4970280;28;20196;-69
2022/05/30 11:29:48;;;;;;;3.97;2.57;;;15.90;1.00;;;;;;4954718;28;20191;-69
2022/05/30 11:32:32;;;;;;;6.73;2.60;;;16.20;1.00;;;;;;4971140;28;20276;-69
2022/05/30 11:35:22;;;;;;;7.03;2.80;;;16.40;99.90;;;;;;4971271;28;20606;-70
2022/05/30 11:38:29;;;;;;;2.70;2.47;;;16.60;99.90;;;;;;4971404;28;20176;-69
2022/05/30 11:41:02;;;;;;;2.83;2.50;;;17.20;99.90;;;;;;4912170;29;20267;-70
2022/05/30 11:44:03;;;;;;;5.03;2.83;;;17.80;99.90;;;;;;4915148;29;20281;-70
2022/05/30 11:47:02;;;;;;;2.63;2.43;;;18.30;99.90;;;;;;4916996;29;20186;-70
2022/05/30 11:49:42;;;;;;;4.97;3.38;;;18.80;99.90;;;;;;4916950;29;20178;-69
2022/05/30 11:52:24;;;;;;;4.78;2.28;;;19.10;99.90;;;;;;4916692;29;20221;-70
2022/05/30 11:55:22;;;;;;;4.63;2.45;;;19.10;99.90;;;;;;4917560;29;20236;-70
2022/05/30 11:57:54;;;;;;;5.65;3.45;;;18.90;99.90;;;;;;4916459;29;20308;-70
2022/05/30 12:00:29;;;;;;;5.10;2.85;;;19.00;99.90;;;;;;4916878;29;20189;-70
2022/05/30 12:02:57;;;;;;;3.20;2.88;;;18.40;99.90;;;;;;4915791;29;20185;-71
2022/05/30 12:05:42;;;;;;;5.35;3.15;;;18.20;99.90;;;;;;4916064;29;20198;-70
2022/05/30 12:08:27;;;;;;;4.37;2.80;;;18.20;99.90;;;;;;4915904;29;20286;-71
2022/05/30 12:11:20;;;;;;;2.78;2.42;;;18.10;99.90;;;;;;4897179;29;20247;-70
2022/05/30 12:14:09;;;;;;;3.53;2.93;;;18.10;99.90;;;;;;4897871;29;20243;-70
2022/05/30 12:17:05;;;;;;;5.70;3.17;;;17.40;99.90;;;;;;4897188;29;20190;-70
2022/05/30 12:25:34;;;;;;;4.28;2.80;;;18.40;99.90;;;;;;4916906;29;20599;-70
2022/05/30 12:28:01;;;;;;;4.97;3.00;;;19.20;99.90;;;;;;4916714;29;20190;-69
2022/05/30 12:30:45;;;;;;;6.43;3.13;;;19.10;99.90;;;;;;4916438;29;20176;-69
2022/05/30 12:33:31;;;;;;;3.55;2.92;;;19.20;99.90;;;;;;4915927;29;20178;-69
2022/05/30 12:36:09;;;;;;;5.57;3.08;;;19.40;99.90;;;;;;4906329;29;20194;-71
2022/05/30 12:38:57;;;;;;;6.78;3.22;;;18.90;99.90;;;;;;4909865;29;20217;-70
2022/05/30 12:41:38;;;;;;;3.45;3.15;;;18.60;99.90;;;;;;4939114;29;20221;-69
2022/05/30 12:44:21;;;;;;;3.17;2.88;;;18.50;99.90;;;;;;4935276;29;20208;-69
2022/05/30 12:46:53;;;;;;;5.72;3.15;;;18.60;99.90;;;;;;4936533;29;20256;-70
2022/05/30 12:49:33;;;;;;;4.80;3.13;;;17.70;99.90;;;;;;4979892;28;20199;-69
2022/05/30 12:52:21;;;;;;;3.45;3.15;;;17.00;99.90;;;;;;4994952;28;20179;-69
2022/05/30 12:55:13;;;;;;;3.28;3.00;;;17.70;99.90;;;;;;4995595;28;20190;-69
2022/05/30 12:57:44;;;;;;;4.45;3.05;;;18.00;99.90;;;;;;4993382;28;20286;-69
2022/05/30 13:00:15;;;;;;;6.35;2.95;;;18.30;99.90;;;;;;4994612;28;20176;-68
2022/05/30 13:03:24;;;;;;;3.45;2.90;;;18.70;99.90;;;;;;4994407;28;20183;-70
2022/05/30 13:06:15;;;;;;;6.65;2.78;;;19.60;99.90;;;;;;4993621;28;20195;-70
2022/05/30 13:09:01;;;;;;;8.68;3.35;;;19.90;99.90;;;;;;4994047;28;20171;-69
2022/05/30 13:11:33;;;;;;;5.50;3.67;;;20.40;99.90;;;;;;4994298;28;20171;-70
2022/05/30 13:14:20;;;;;;;5.22;3.15;;;20.80;99.90;;;;;;4993816;28;20258;-70
2022/05/30 13:16:47;;;;;;;3.92;3.53;;;20.20;99.90;;;;;;4993912;28;20171;-70
2022/05/30 13:19:16;;;;;;;5.55;3.90;;;20.00;99.90;;;;;;4978539;28;20736;-70
2022/05/30 13:21:49;;;;;;;3.83;2.90;;;20.50;99.90;;;;;;4988058;28;20277;-69
2022/05/30 13:24:33;;;;;;;5.85;2.80;;;20.50;99.90;;;;;;4990625;28;20218;-69
2022/05/30 13:27:00;;;;;;;5.20;3.13;;;19.80;99.90;;;;;;4992434;28;20271;-70
2022/05/30 13:29:36;;;;;;;5.30;3.22;;;19.70;99.90;;;;;;4993007;28;20175;-69
2022/05/30 13:32:10;;;;;;;5.03;3.35;;;19.70;99.90;;;;;;4994265;28;20183;-69